Time,TemperatureF,DewpointF,PressureIn,WindDirection,WindDirectionDegrees,WindSpeedMPH,WindSpeedGustMPH,Humidity,HourlyPrecipIn,Conditions,Clouds,dailyrainin,SoftwareType,DateUTC
2013-04-26 00:00:00,48.1,45.3,30.21,WNW,284,5.0,5.0,90,0.00,,,0.00,Wunderground v.1.15,2013-04-26 07:00:00,
2013-04-26 00:05:00,48.0,45.2,30.21,WNW,284,4.0,5.0,90,0.00,,,0.00,Wunderground v.1.15,2013-04-26 07:05:00,
2013-04-26 00:10:00,48.0,44.9,30.21,West,278,5.0,5.0,89,0.00,,,0.00,Wunderground v.1.15,2013-04-26 07:10:00,
2013-04-26 00:15:00,47.9,44.8,30.21,WNW,286,5.0,6.0,89,0.00,,,0.00,Wunderground v.1.15,2013-04-26 07:15:00,
2013-04-26 00:20:00,47.9,44.8,30.21,NW,317,4.0,4.0,89,0.00,,,0.00,Wunderground v.1.15,2013-04-26 07:20:00,
2013-04-26 00:25:00,47.9,45.1,30.21,WNW,299,5.0,5.0,90,0.00,,,0.00,Wunderground v.1.15,2013-04-26 07:25:00,
2013-04-26 00:29:00,47.9,45.1,30.21,West,271,5.0,5.0,90,0.00,,,0.00,Wunderground v.1.15,2013-04-26 07:29:00,
2013-04-26 00:35:00,47.9,45.1,30.21,WNW,295,5.0,5.0,90,0.00,,,0.00,Wunderground v.1.15,2013-04-26 07:35:00,
2013-04-26 00:40:00,47.9,45.1,30.21,NW,321,4.0,5.0,90,0.00,,,0.00,Wunderground v.1.15,2013-04-26 07:40:00,
2013-04-26 00:45:00,47.8,45.0,30.21,West,267,5.0,5.0,90,0.00,,,0.00,Wunderground v.1.15,2013-04-26 07:45:00,
2013-04-26 00:55:00,47.6,44.8,30.21,West,265,5.0,5.0,90,0.00,,,0.00,Wunderground v.1.15,2013-04-26 07:55:00,
2013-04-26 01:00:00,47.6,44.8,30.21,West,269,4.0,4.0,90,0.00,,,0.00,Wunderground v.1.15,2013-04-26 08:00:00,
2013-04-26 01:05:00,47.7,44.9,30.21,WNW,298,4.0,4.0,90,0.00,,,0.00,Wunderground v.1.15,2013-04-26 08:05:00,
2013-04-26 01:10:00,47.5,44.4,30.21,NNW,329,4.0,4.0,89,0.00,,,0.00,Wunderground v.1.15,2013-04-26 08:10:00,
2013-04-26 01:15:00,47.5,44.7,30.21,NW,311,4.0,4.0,90,0.00,,,0.00,Wunderground v.1.15,2013-04-26 08:15:00,
2013-04-26 01:20:00,47.5,44.7,30.21,WNW,285,3.0,6.0,90,0.00,,,0.00,Wunderground v.1.15,2013-04-26 08:20:00,
2013-04-26 01:25:00,47.5,44.7,30.21,NW,306,4.0,6.0,90,0.00,,,0.00,Wunderground v.1.15,2013-04-26 08:25:00,
2013-04-26 01:30:00,47.5,44.7,30.22,WNW,292,5.0,5.0,90,0.00,,,0.00,Wunderground v.1.15,2013-04-26 08:30:00,
2013-04-26 01:35:00,47.5,44.7,30.22,West,281,5.0,8.0,90,0.00,,,0.00,Wunderground v.1.15,2013-04-26 08:35:00,
2013-04-26 01:40:00,47.4,44.6,30.22,WNW,290,5.0,5.0,90,0.00,,,0.00,Wunderground v.1.15,2013-04-26 08:40:00,
2013-04-26 01:45:00,47.4,44.6,30.22,NW,317,5.0,5.0,90,0.00,,,0.00,Wunderground v.1.15,2013-04-26 08:45:00,
2013-04-26 01:50:00,47.4,44.6,30.22,NW,313,4.0,4.0,90,0.00,,,0.00,Wunderground v.1.15,2013-04-26 08:50:00,
2013-04-26 01:55:00,47.3,44.5,30.22,NNW,341,3.0,4.0,90,0.00,,,0.00,Wunderground v.1.15,2013-04-26 08:55:00,
2013-04-26 02:00:00,47.2,44.4,30.22,NNW,331,2.0,4.0,90,0.00,,,0.00,Wunderground v.1.15,2013-04-26 09:00:00,
2013-04-26 02:04:00,47.1,44.6,30.22,NNW,333,3.0,4.0,91,0.00,,,0.00,Wunderground v.1.15,2013-04-26 09:04:00,
2013-04-26 02:10:00,47.0,44.5,30.22,NNW,332,4.0,5.0,91,0.00,,,0.00,Wunderground v.1.15,2013-04-26 09:10:00,
2013-04-26 02:15:00,46.8,44.3,30.22,WNW,303,3.0,5.0,91,0.00,,,0.00,Wunderground v.1.15,2013-04-26 09:15:00,
2013-04-26 02:20:00,46.8,44.3,30.22,NW,315,3.0,3.0,91,0.00,,,0.00,Wunderground v.1.15,2013-04-26 09:20:00,
2013-04-26 02:25:00,46.7,44.2,30.22,NW,321,3.0,4.0,91,0.00,,,0.00,Wunderground v.1.15,2013-04-26 09:25:00,
2013-04-26 02:29:00,46.6,44.1,30.22,NW,319,3.0,3.0,91,0.00,,,0.00,Wunderground v.1.15,2013-04-26 09:29:00,
2013-04-26 02:35:00,46.5,44.3,30.22,NW,321,3.0,3.0,92,0.00,,,0.00,Wunderground v.1.15,2013-04-26 09:35:00,
2013-04-26 02:40:00,46.4,44.2,30.22,NW,325,2.0,2.0,92,0.00,,,0.00,Wunderground v.1.15,2013-04-26 09:40:00,
2013-04-26 02:44:00,46.4,44.2,30.22,North,355,2.0,3.0,92,0.00,,,0.00,Wunderground v.1.15,2013-04-26 09:44:00,
2013-04-26 02:50:00,46.4,44.2,30.22,North,355,1.0,1.0,92,0.00,,,0.00,Wunderground v.1.15,2013-04-26 09:50:00,
2013-04-26 02:55:00,46.3,44.1,30.22,NNW,335,1.0,1.0,92,0.00,,,0.00,Wunderground v.1.15,2013-04-26 09:55:00,
2013-04-26 03:00:00,46.3,44.1,30.22,NNW,329,1.0,1.0,92,0.00,,,0.00,Wunderground v.1.15,2013-04-26 10:00:00,
2013-04-26 03:05:00,46.3,44.1,30.21,NNW,329,1.0,1.0,92,0.00,,,0.00,Wunderground v.1.15,2013-04-26 10:05:00,
2013-04-26 03:10:00,46.2,44.0,30.21,NNW,329,0.0,0.0,92,0.00,,,0.00,Wunderground v.1.15,2013-04-26 10:10:00,
2013-04-26 03:15:00,46.2,44.0,30.21,NNW,329,0.0,2.0,92,0.00,,,0.00,Wunderground v.1.15,2013-04-26 10:15:00,
2013-04-26 03:19:00,46.1,43.9,30.21,NNW,327,1.0,1.0,92,0.00,,,0.00,Wunderground v.1.15,2013-04-26 10:19:00,
2013-04-26 03:25:00,46.1,43.9,30.21,NNW,327,1.0,1.0,92,0.00,,,0.00,Wunderground v.1.15,2013-04-26 10:25:00,
2013-04-26 03:29:00,46.2,44.0,30.22,WNW,300,2.0,4.0,92,0.00,,,0.00,Wunderground v.1.15,2013-04-26 10:29:00,
2013-04-26 03:35:00,46.2,44.0,30.22,WNW,292,3.0,4.0,92,0.00,,,0.00,Wunderground v.1.15,2013-04-26 10:35:00,
2013-04-26 03:40:00,46.2,44.0,30.23,WNW,284,3.0,5.0,92,0.00,,,0.00,Wunderground v.1.15,2013-04-26 10:40:00,
2013-04-26 03:45:00,46.2,44.0,30.22,West,273,4.0,5.0,92,0.00,,,0.00,Wunderground v.1.15,2013-04-26 10:45:00,
2013-04-26 03:50:00,46.1,43.9,30.22,West,271,3.0,3.0,92,0.00,,,0.00,Wunderground v.1.15,2013-04-26 10:50:00,
2013-04-26 03:55:00,46.1,43.9,30.22,West,271,1.0,3.0,92,0.00,,,0.00,Wunderground v.1.15,2013-04-26 10:55:00,
2013-04-26 04:00:00,46.2,44.0,30.22,WNW,302,0.0,0.0,92,0.00,,,0.00,Wunderground v.1.15,2013-04-26 11:00:00,
2013-04-26 04:04:00,46.1,43.9,30.22,WNW,302,1.0,1.0,92,0.00,,,0.00,Wunderground v.1.15,2013-04-26 11:04:00,
2013-04-26 04:09:00,46.1,43.9,30.22,NW,305,0.0,1.0,92,0.00,,,0.00,Wunderground v.1.15,2013-04-26 11:09:00,
2013-04-26 04:14:00,46.1,43.9,30.23,NW,309,1.0,3.0,92,0.00,,,0.00,Wunderground v.1.15,2013-04-26 11:14:00,
2013-04-26 04:20:00,46.0,43.8,30.23,NW,304,2.0,2.0,92,0.00,,,0.00,Wunderground v.1.15,2013-04-26 11:20:00,
2013-04-26 04:25:00,45.9,44.0,30.23,NW,306,2.0,2.0,93,0.00,,,0.00,Wunderground v.1.15,2013-04-26 11:25:00,
2013-04-26 04:30:00,46.0,44.1,30.23,WNW,300,2.0,2.0,93,0.00,,,0.00,Wunderground v.1.15,2013-04-26 11:30:00,
2013-04-26 04:35:00,46.0,44.1,30.23,WNW,300,2.0,3.0,93,0.00,,,0.00,Wunderground v.1.15,2013-04-26 11:35:00,
2013-04-26 04:40:00,45.8,43.9,30.23,NW,309,2.0,2.0,93,0.00,,,0.00,Wunderground v.1.15,2013-04-26 11:40:00,
2013-04-26 04:45:00,45.8,43.9,30.23,NW,309,1.0,2.0,93,0.00,,,0.00,Wunderground v.1.15,2013-04-26 11:45:00,
2013-04-26 04:49:00,45.8,43.9,30.23,NW,309,1.0,1.0,93,0.00,,,0.00,Wunderground v.1.15,2013-04-26 11:49:00,
2013-04-26 04:54:00,45.7,43.8,30.24,NW,312,1.0,1.0,93,0.00,,,0.00,Wunderground v.1.15,2013-04-26 11:54:00,
2013-04-26 05:00:00,45.6,43.7,30.24,North,360,1.0,3.0,93,0.00,,,0.00,Wunderground v.1.15,2013-04-26 12:00:00,
2013-04-26 05:05:00,45.6,43.7,30.24,NNE,24,1.0,3.0,93,0.00,,,0.00,Wunderground v.1.15,2013-04-26 12:05:00,
2013-04-26 05:10:00,45.6,43.7,30.24,WNW,294,1.0,1.0,93,0.00,,,0.00,Wunderground v.1.15,2013-04-26 12:10:00,
2013-04-26 05:15:00,45.5,43.6,30.24,WSW,256,2.0,2.0,93,0.00,,,0.00,Wunderground v.1.15,2013-04-26 12:15:00,
2013-04-26 05:20:00,45.5,43.6,30.24,WNW,287,2.0,3.0,93,0.00,,,0.00,Wunderground v.1.15,2013-04-26 12:20:00,
2013-04-26 05:25:00,45.5,43.9,30.24,WNW,288,2.0,3.0,94,0.00,,,0.00,Wunderground v.1.15,2013-04-26 12:25:00,
2013-04-26 05:30:00,45.5,43.6,30.24,West,266,3.0,3.0,93,0.00,,,0.00,Wunderground v.1.15,2013-04-26 12:30:00,
2013-04-26 05:35:00,45.4,43.5,30.24,West,269,2.0,3.0,93,0.00,,,0.00,Wunderground v.1.15,2013-04-26 12:35:00,
2013-04-26 05:40:00,45.3,43.4,30.23,West,269,2.0,2.0,93,0.00,,,0.00,Wunderground v.1.15,2013-04-26 12:40:00,
2013-04-26 05:45:00,45.2,43.3,30.23,West,270,2.0,2.0,93,0.00,,,0.00,Wunderground v.1.15,2013-04-26 12:45:00,
2013-04-26 05:50:00,45.2,43.3,30.24,West,270,2.0,2.0,93,0.00,,,0.00,Wunderground v.1.15,2013-04-26 12:50:00,
2013-04-26 05:55:00,45.2,43.6,30.23,West,270,1.0,2.0,94,0.00,,,0.00,Wunderground v.1.15,2013-04-26 12:55:00,
2013-04-26 06:00:00,45.3,43.7,30.23,West,277,1.0,3.0,94,0.00,,,0.00,Wunderground v.1.15,2013-04-26 13:00:00,
2013-04-26 06:05:00,45.1,43.5,30.23,West,273,2.0,3.0,94,0.00,,,0.00,Wunderground v.1.15,2013-04-26 13:05:00,
2013-04-26 06:10:00,45.0,43.4,30.23,West,276,2.0,2.0,94,0.00,,,0.00,Wunderground v.1.15,2013-04-26 13:10:00,
2013-04-26 06:15:00,44.9,43.0,30.24,West,276,1.0,2.0,93,0.00,,,0.00,Wunderground v.1.15,2013-04-26 13:15:00,
2013-04-26 06:19:00,44.9,43.3,30.24,West,275,2.0,2.0,94,0.00,,,0.00,Wunderground v.1.15,2013-04-26 13:19:00,
2013-04-26 06:25:00,45.0,43.4,30.24,WNW,284,2.0,2.0,94,0.00,,,0.00,Wunderground v.1.15,2013-04-26 13:25:00,
2013-04-26 06:30:00,44.8,43.2,30.24,West,271,1.0,5.0,94,0.00,,,0.00,Wunderground v.1.15,2013-04-26 13:30:00,
2013-04-26 06:35:00,44.8,42.9,30.24,WSW,252,2.0,5.0,93,0.00,,,0.00,Wunderground v.1.15,2013-04-26 13:35:00,
2013-04-26 06:40:00,44.7,42.8,30.24,WSW,240,3.0,3.0,93,0.00,,,0.00,Wunderground v.1.15,2013-04-26 13:40:00,
2013-04-26 06:45:00,44.8,43.2,30.25,West,268,3.0,3.0,94,0.00,,,0.00,Wunderground v.1.15,2013-04-26 13:45:00,
2013-04-26 06:50:00,44.9,43.3,30.24,West,274,3.0,3.0,94,0.00,,,0.00,Wunderground v.1.15,2013-04-26 13:50:00,
2013-04-26 06:55:00,44.8,43.2,30.25,West,275,2.0,3.0,94,0.00,,,0.00,Wunderground v.1.15,2013-04-26 13:55:00,
2013-04-26 07:00:00,44.8,43.2,30.25,WNW,288,1.0,1.0,94,0.00,,,0.00,Wunderground v.1.15,2013-04-26 14:00:00,
2013-04-26 07:05:00,44.8,43.2,30.25,NNW,328,1.0,1.0,94,0.00,,,0.00,Wunderground v.1.15,2013-04-26 14:05:00,
2013-04-26 07:10:00,44.7,43.1,30.25,NNE,15,1.0,2.0,94,0.00,,,0.00,Wunderground v.1.15,2013-04-26 14:10:00,
2013-04-26 07:15:00,44.7,43.1,30.25,NNW,331,2.0,3.0,94,0.00,,,0.00,Wunderground v.1.15,2013-04-26 14:15:00,
2013-04-26 07:20:00,44.5,42.9,30.25,NW,304,2.0,2.0,94,0.00,,,0.00,Wunderground v.1.15,2013-04-26 14:20:00,
2013-04-26 07:25:00,44.5,42.9,30.25,NW,306,1.0,2.0,94,0.00,,,0.00,Wunderground v.1.15,2013-04-26 14:25:00,
2013-04-26 07:30:00,44.5,42.9,30.25,NW,306,0.0,2.0,94,0.00,,,0.00,Wunderground v.1.15,2013-04-26 14:30:00,
2013-04-26 07:35:00,44.5,42.9,30.25,NW,320,1.0,2.0,94,0.00,,,0.00,Wunderground v.1.15,2013-04-26 14:35:00,
2013-04-26 07:40:00,44.5,42.9,30.25,NW,325,1.0,1.0,94,0.00,,,0.00,Wunderground v.1.15,2013-04-26 14:40:00,
2013-04-26 07:45:00,44.5,43.2,30.25,NNW,337,1.0,1.0,95,0.00,,,0.00,Wunderground v.1.15,2013-04-26 14:45:00,
2013-04-26 07:50:00,44.6,43.3,30.26,NNW,336,1.0,1.0,95,0.00,,,0.00,Wunderground v.1.15,2013-04-26 14:50:00,
2013-04-26 07:55:00,44.7,43.4,30.26,WNW,284,1.0,2.0,95,0.00,,,0.00,Wunderground v.1.15,2013-04-26 14:55:00,
2013-04-26 07:59:00,44.7,43.1,30.26,North,355,1.0,3.0,94,0.00,,,0.00,Wunderground v.1.15,2013-04-26 14:59:00,
2013-04-26 08:05:00,44.6,43.3,30.26,NNE,28,2.0,3.0,95,0.00,,,0.00,Wunderground v.1.15,2013-04-26 15:05:00,
2013-04-26 08:10:00,44.7,43.4,30.26,North,9,2.0,2.0,95,0.00,,,0.00,Wunderground v.1.15,2013-04-26 15:10:00,
2013-04-26 08:15:00,44.7,43.4,30.26,NNE,13,2.0,2.0,95,0.00,,,0.00,Wunderground v.1.15,2013-04-26 15:15:00,
2013-04-26 08:20:00,44.7,43.4,30.26,NNE,25,1.0,1.0,95,0.00,,,0.00,Wunderground v.1.15,2013-04-26 15:20:00,
2013-04-26 08:25:00,44.7,43.4,30.26,NNE,19,2.0,2.0,95,0.00,,,0.00,Wunderground v.1.15,2013-04-26 15:25:00,
2013-04-26 08:30:00,44.8,43.5,30.26,North,5,2.0,2.0,95,0.00,,,0.00,Wunderground v.1.15,2013-04-26 15:30:00,
2013-04-26 08:34:00,44.8,43.5,30.26,North,9,1.0,2.0,95,0.00,,,0.00,Wunderground v.1.15,2013-04-26 15:34:00,
2013-04-26 08:39:00,45.0,43.7,30.26,North,360,1.0,2.0,95,0.00,,,0.00,Wunderground v.1.15,2013-04-26 15:39:00,
2013-04-26 08:44:00,45.0,43.4,30.26,NNE,22,2.0,2.0,94,0.00,,,0.00,Wunderground v.1.15,2013-04-26 15:44:00,
2013-04-26 08:50:00,45.0,43.7,30.27,NNW,337,2.0,2.0,95,0.00,,,0.00,Wunderground v.1.15,2013-04-26 15:50:00,
2013-04-26 08:55:00,45.2,43.6,30.27,NNW,346,1.0,2.0,94,0.00,,,0.00,Wunderground v.1.15,2013-04-26 15:55:00,
2013-04-26 09:00:00,45.0,43.4,30.27,NNW,331,1.0,3.0,94,0.00,,,0.00,Wunderground v.1.15,2013-04-26 16:00:00,
2013-04-26 09:05:00,45.2,43.6,30.27,NNE,24,2.0,3.0,94,0.00,,,0.00,Wunderground v.1.15,2013-04-26 16:05:00,
2013-04-26 09:10:00,45.3,43.7,30.27,NE,34,2.0,2.0,94,0.00,,,0.00,Wunderground v.1.15,2013-04-26 16:10:00,
2013-04-26 09:15:00,45.5,43.9,30.27,NE,40,2.0,2.0,94,0.00,,,0.00,Wunderground v.1.15,2013-04-26 16:15:00,
2013-04-26 09:19:00,45.7,44.1,30.27,North,10,2.0,2.0,94,0.00,,,0.00,Wunderground v.1.15,2013-04-26 16:19:00,
2013-04-26 09:24:00,45.8,44.2,30.26,NNE,28,1.0,3.0,94,0.00,,,0.00,Wunderground v.1.15,2013-04-26 16:24:00,
2013-04-26 09:29:00,45.9,44.3,30.26,NNE,32,1.0,3.0,94,0.00,,,0.00,Wunderground v.1.15,2013-04-26 16:29:00,
2013-04-26 09:35:00,46.1,44.2,30.26,NNE,31,1.0,3.0,93,0.00,,,0.00,Wunderground v.1.15,2013-04-26 16:35:00,
2013-04-26 09:40:00,46.3,44.4,30.26,NNE,19,1.0,1.0,93,0.00,,,0.00,Wunderground v.1.15,2013-04-26 16:40:00,
2013-04-26 09:45:00,46.3,44.4,30.26,SE,138,1.0,1.0,93,0.00,,,0.00,Wunderground v.1.15,2013-04-26 16:45:00,
2013-04-26 09:50:00,46.4,44.5,30.26,ENE,69,1.0,1.0,93,0.00,,,0.00,Wunderground v.1.15,2013-04-26 16:50:00,
2013-04-26 09:55:00,46.7,44.8,30.26,East,92,1.0,1.0,93,0.00,,,0.00,Wunderground v.1.15,2013-04-26 16:55:00,
2013-04-26 10:00:00,47.0,45.1,30.26,East,87,1.0,2.0,93,0.00,,,0.00,Wunderground v.1.15,2013-04-26 17:00:00,
2013-04-26 10:05:00,47.1,44.9,30.26,ENE,65,1.0,3.0,92,0.00,,,0.00,Wunderground v.1.15,2013-04-26 17:05:00,
2013-04-26 10:10:00,47.2,45.0,30.26,ENE,73,1.0,2.0,92,0.00,,,0.00,Wunderground v.1.15,2013-04-26 17:10:00,
2013-04-26 10:15:00,47.4,44.9,30.26,NNW,344,1.0,2.0,91,0.00,,,0.00,Wunderground v.1.15,2013-04-26 17:15:00,
2013-04-26 10:19:00,47.6,45.4,30.27,NW,311,1.0,4.0,92,0.00,,,0.00,Wunderground v.1.15,2013-04-26 17:19:00,
2013-04-26 10:25:00,47.4,44.9,30.27,NW,311,1.0,4.0,91,0.00,,,0.00,Wunderground v.1.15,2013-04-26 17:25:00,
2013-04-26 10:29:00,47.1,44.6,30.27,NW,311,2.0,2.0,91,0.00,,,0.00,Wunderground v.1.15,2013-04-26 17:29:00,
2013-04-26 10:35:00,47.1,44.6,30.27,NW,311,2.0,2.0,91,0.00,,,0.00,Wunderground v.1.15,2013-04-26 17:35:00,
2013-04-26 10:40:00,47.3,45.1,30.26,NW,311,1.0,1.0,92,0.00,,,0.00,Wunderground v.1.15,2013-04-26 17:40:00,
2013-04-26 10:45:00,47.8,45.6,30.26,NW,311,1.0,2.0,92,0.00,,,0.00,Wunderground v.1.15,2013-04-26 17:45:00,
2013-04-26 10:50:00,48.2,45.7,30.26,West,261,2.0,2.0,91,0.00,,,0.00,Wunderground v.1.15,2013-04-26 17:50:00,
2013-04-26 10:55:00,48.5,45.7,30.26,South,181,3.0,3.0,90,0.00,,,0.00,Wunderground v.1.15,2013-04-26 17:55:00,
2013-04-26 11:00:00,48.6,45.8,30.26,South,181,3.0,3.0,90,0.00,,,0.00,Wunderground v.1.15,2013-04-26 18:00:00,
2013-04-26 11:05:00,48.7,45.9,30.26,South,181,2.0,3.0,90,0.00,,,0.00,Wunderground v.1.15,2013-04-26 18:05:00,
2013-04-26 11:10:00,49.1,46.3,30.26,South,181,1.0,1.0,90,0.00,,,0.00,Wunderground v.1.15,2013-04-26 18:10:00,
2013-04-26 11:15:00,49.5,46.4,30.26,South,181,1.0,1.0,89,0.00,,,0.00,Wunderground v.1.15,2013-04-26 18:15:00,
2013-04-26 11:19:00,49.9,46.8,30.26,South,181,0.0,0.0,89,0.00,,,0.00,Wunderground v.1.15,2013-04-26 18:19:00,
2013-04-26 11:24:00,50.6,47.2,30.26,South,181,1.0,2.0,88,0.00,,,0.00,Wunderground v.1.15,2013-04-26 18:24:00,
2013-04-26 11:35:00,51.1,47.4,30.26,South,181,1.0,2.0,87,0.00,,,0.00,Wunderground v.1.15,2013-04-26 18:35:00,
2013-04-26 11:40:00,51.3,47.6,30.26,South,181,1.0,2.0,87,0.00,,,0.00,Wunderground v.1.15,2013-04-26 18:40:00,
2013-04-26 11:45:00,51.5,47.8,30.26,South,181,2.0,2.0,87,0.00,,,0.00,Wunderground v.1.15,2013-04-26 18:45:00,
2013-04-26 11:50:00,51.7,48.3,30.26,SSW,202,1.0,2.0,88,0.00,,,0.00,Wunderground v.1.15,2013-04-26 18:50:00,
2013-04-26 11:55:00,52.0,48.6,30.26,SW,215,1.0,2.0,88,0.00,,,0.00,Wunderground v.1.15,2013-04-26 18:55:00,
2013-04-26 12:00:00,52.5,48.7,30.25,SW,215,1.0,1.0,87,0.00,,,0.00,Wunderground v.1.15,2013-04-26 19:00:00,
2013-04-26 12:09:00,54.1,49.4,30.25,SW,215,1.0,1.0,84,0.00,,,0.00,Wunderground v.1.15,2013-04-26 19:09:00,
2013-04-26 12:14:00,54.8,49.7,30.25,SW,215,1.0,1.0,83,0.00,,,0.00,Wunderground v.1.15,2013-04-26 19:14:00,
2013-04-26 12:20:00,54.9,49.5,30.25,SW,215,1.0,1.0,82,0.00,,,0.00,Wunderground v.1.15,2013-04-26 19:20:00,
2013-04-26 12:25:00,54.7,49.3,30.25,WSW,244,1.0,2.0,82,0.00,,,0.00,Wunderground v.1.15,2013-04-26 19:25:00,
2013-04-26 12:30:00,54.4,50.0,30.25,West,279,3.0,5.0,85,0.00,,,0.00,Wunderground v.1.15,2013-04-26 19:30:00,
2013-04-26 12:35:00,53.9,49.8,30.25,West,279,4.0,5.0,86,0.00,,,0.00,Wunderground v.1.15,2013-04-26 19:35:00,
2013-04-26 12:40:00,53.9,49.8,30.25,West,274,5.0,5.0,86,0.00,,,0.00,Wunderground v.1.15,2013-04-26 19:40:00,
2013-04-26 12:45:00,54.2,50.4,30.25,WNW,282,4.0,5.0,87,0.00,,,0.00,Wunderground v.1.15,2013-04-26 19:45:00,
2013-04-26 12:49:00,55.2,50.1,30.25,WNW,282,3.0,3.0,83,0.00,,,0.00,Wunderground v.1.15,2013-04-26 19:49:00,
2013-04-26 12:54:00,56.6,51.2,30.25,WNW,285,3.0,4.0,82,0.00,,,0.00,Wunderground v.1.15,2013-04-26 19:54:00,
2013-04-26 13:00:00,57.5,51.0,30.25,WNW,282,4.0,4.0,79,0.00,,,0.00,Wunderground v.1.15,2013-04-26 20:00:00,
2013-04-26 13:05:00,57.9,51.8,30.25,WNW,296,4.0,4.0,80,0.00,,,0.00,Wunderground v.1.15,2013-04-26 20:05:00,
2013-04-26 13:10:00,59.4,53.2,30.25,NE,45,3.0,3.0,80,0.00,,,0.00,Wunderground v.1.15,2013-04-26 20:10:00,
2013-04-26 13:15:00,60.9,53.6,30.25,NNE,13,3.0,3.0,77,0.00,,,0.00,Wunderground v.1.15,2013-04-26 20:15:00,
2013-04-26 13:20:00,62.2,53.8,30.25,North,5,3.0,3.0,74,0.00,,,0.00,Wunderground v.1.15,2013-04-26 20:20:00,
2013-04-26 13:25:00,62.8,53.6,30.25,NW,311,3.0,3.0,72,0.00,,,0.00,Wunderground v.1.15,2013-04-26 20:25:00,
2013-04-26 13:30:00,63.5,53.9,30.25,NW,323,3.0,3.0,71,0.00,,,0.00,Wunderground v.1.15,2013-04-26 20:30:00,
2013-04-26 13:34:00,64.0,54.0,30.25,North,360,3.0,5.0,70,0.00,,,0.00,Wunderground v.1.15,2013-04-26 20:34:00,
2013-04-26 13:40:00,64.3,52.7,30.25,NNW,327,4.0,4.0,66,0.00,,,0.00,Wunderground v.1.15,2013-04-26 20:40:00,
2013-04-26 13:45:00,64.8,53.2,30.25,North,5,4.0,4.0,66,0.00,,,0.00,Wunderground v.1.15,2013-04-26 20:45:00,
2013-04-26 13:54:00,65.3,52.8,30.24,NNE,15,4.0,7.0,64,0.00,,,0.00,Wunderground v.1.15,2013-04-26 20:54:00,
2013-04-26 14:00:00,65.5,51.7,30.24,NNW,331,5.0,5.0,61,0.00,,,0.00,Wunderground v.1.15,2013-04-26 21:00:00,
2013-04-26 14:05:00,66.0,52.6,30.24,NNW,329,4.0,5.0,62,0.00,,,0.00,Wunderground v.1.15,2013-04-26 21:05:00,
2013-04-26 14:09:00,66.3,52.9,30.24,NNW,329,3.0,5.0,62,0.00,,,0.00,Wunderground v.1.15,2013-04-26 21:09:00,
2013-04-26 14:15:00,66.5,51.3,30.24,North,5,3.0,5.0,58,0.00,,,0.00,Wunderground v.1.15,2013-04-26 21:15:00,
2013-04-26 14:20:00,66.6,52.3,30.24,NNW,329,3.0,5.0,60,0.00,,,0.00,Wunderground v.1.15,2013-04-26 21:20:00,
2013-04-26 14:25:00,66.6,50.9,30.24,ENE,69,3.0,5.0,57,0.00,,,0.00,Wunderground v.1.15,2013-04-26 21:25:00,
2013-04-26 14:30:00,66.7,52.4,30.24,NNW,339,3.0,3.0,60,0.00,,,0.00,Wunderground v.1.15,2013-04-26 21:30:00,
2013-04-26 14:35:00,66.5,52.6,30.25,ENE,59,4.0,4.0,61,0.00,,,0.00,Wunderground v.1.15,2013-04-26 21:35:00,
2013-04-26 14:40:00,66.2,52.8,30.25,WNW,294,4.0,5.0,62,0.00,,,0.00,Wunderground v.1.15,2013-04-26 21:40:00,
2013-04-26 14:45:00,65.8,52.9,30.25,NW,318,3.0,5.0,63,0.00,,,0.00,Wunderground v.1.15,2013-04-26 21:45:00,
2013-04-26 14:50:00,66.2,52.3,30.24,NW,311,4.0,4.0,61,0.00,,,0.00,Wunderground v.1.15,2013-04-26 21:50:00,
2013-04-26 14:55:00,66.3,46.0,30.24,WNW,299,4.0,4.0,48,0.00,,,0.00,Wunderground v.1.15,2013-04-26 21:55:00,
2013-04-26 15:00:00,66.7,47.5,30.24,WNW,288,5.0,6.0,50,0.00,,,0.00,Wunderground v.1.15,2013-04-26 22:00:00,
2013-04-26 15:04:00,66.6,40.2,30.24,WNW,284,5.0,7.0,38,0.00,,,0.00,Wunderground v.1.15,2013-04-26 22:04:00,
2013-04-26 15:10:00,67.4,42.2,30.24,WNW,289,5.0,5.0,40,0.00,,,0.00,Wunderground v.1.15,2013-04-26 22:10:00,
2013-04-26 15:15:00,68.0,40.7,30.24,West,276,5.0,6.0,37,0.00,,,0.00,Wunderground v.1.15,2013-04-26 22:15:00,
2013-04-26 15:20:00,68.0,39.3,30.24,NNW,340,6.0,9.0,35,0.00,,,0.00,Wunderground v.1.15,2013-04-26 22:20:00,
2013-04-26 15:25:00,67.5,39.6,30.24,WNW,293,6.0,9.0,36,0.00,,,0.00,Wunderground v.1.15,2013-04-26 22:25:00,
2013-04-26 15:30:00,67.8,41.3,30.24,NW,304,5.0,5.0,38,0.00,,,0.00,Wunderground v.1.15,2013-04-26 22:30:00,
2013-04-26 15:34:00,68.6,39.8,30.24,WNW,294,5.0,5.0,35,0.00,,,0.00,Wunderground v.1.15,2013-04-26 22:34:00,
2013-04-26 15:39:00,68.2,40.2,30.23,West,272,5.0,7.0,36,0.00,,,0.00,Wunderground v.1.15,2013-04-26 22:39:00,
2013-04-26 15:44:00,66.9,39.8,30.23,WNW,295,6.0,7.0,37,0.00,,,0.00,Wunderground v.1.15,2013-04-26 22:44:00,
2013-04-26 15:50:00,65.2,42.1,30.23,West,280,6.0,6.0,43,0.00,,,0.00,Wunderground v.1.15,2013-04-26 22:50:00,
2013-04-26 15:55:00,64.9,40.0,30.23,West,279,7.0,7.0,40,0.00,,,0.00,Wunderground v.1.15,2013-04-26 22:55:00,
2013-04-26 16:05:00,65.8,41.4,30.23,West,280,7.0,7.0,41,0.00,,,0.00,Wunderground v.1.15,2013-04-26 23:05:00,
2013-04-26 16:10:00,64.9,42.5,30.23,West,265,6.0,6.0,44,0.00,,,0.00,Wunderground v.1.15,2013-04-26 23:10:00,
2013-04-26 16:15:00,64.8,41.8,30.22,WNW,284,5.0,7.0,43,0.00,,,0.00,Wunderground v.1.15,2013-04-26 23:15:00,
2013-04-26 16:20:00,63.7,43.6,30.22,West,280,7.0,7.0,48,0.00,,,0.00,Wunderground v.1.15,2013-04-26 23:20:00,
2013-04-26 16:25:00,62.8,38.1,30.22,West,261,8.0,8.0,40,0.00,,,0.00,Wunderground v.1.15,2013-04-26 23:25:00,
2013-04-26 16:30:00,65.4,38.4,30.22,WNW,284,8.0,8.0,37,0.00,,,0.00,Wunderground v.1.15,2013-04-26 23:30:00,
2013-04-26 16:34:00,65.6,41.3,30.21,WNW,290,8.0,8.0,41,0.00,,,0.00,Wunderground v.1.15,2013-04-26 23:34:00,
2013-04-26 16:39:00,66.5,38.7,30.22,NW,313,7.0,7.0,36,0.00,,,0.00,Wunderground v.1.15,2013-04-26 23:39:00,
2013-04-26 16:44:00,67.8,37.6,30.21,WNW,294,5.0,7.0,33,0.00,,,0.00,Wunderground v.1.15,2013-04-26 23:44:00,
2013-04-26 16:50:00,68.8,47.2,30.21,NW,323,4.0,6.0,46,0.00,,,0.00,Wunderground v.1.15,2013-04-26 23:50:00,
2013-04-26 17:10:00,67.4,47.6,30.20,North,355,3.0,3.0,49,0.00,,,0.00,Wunderground v.1.15,2013-04-27 00:10:00,
2013-04-26 17:15:00,67.1,47.3,30.20,NNW,345,3.0,5.0,49,0.00,,,0.00,Wunderground v.1.15,2013-04-27 00:15:00,
2013-04-26 17:20:00,67.0,47.7,30.20,NW,312,3.0,3.0,50,0.00,,,0.00,Wunderground v.1.15,2013-04-27 00:20:00,
2013-04-26 17:25:00,66.9,48.7,30.20,NNW,348,3.0,3.0,52,0.00,,,0.00,Wunderground v.1.15,2013-04-27 00:25:00,
2013-04-26 17:30:00,66.5,48.8,30.21,NNE,29,2.0,2.0,53,0.00,,,0.00,Wunderground v.1.15,2013-04-27 00:30:00,
2013-04-26 17:35:00,65.9,48.8,30.21,East,83,3.0,3.0,54,0.00,,,0.00,Wunderground v.1.15,2013-04-27 00:35:00,
2013-04-26 17:40:00,65.0,47.9,30.21,NW,322,3.0,8.0,54,0.00,,,0.00,Wunderground v.1.15,2013-04-27 00:40:00,
2013-04-26 17:45:00,64.3,47.3,30.21,NNE,24,3.0,8.0,54,0.00,,,0.00,Wunderground v.1.15,2013-04-27 00:45:00,
2013-04-26 17:49:00,64.3,46.8,30.21,NNE,22,3.0,3.0,53,0.00,,,0.00,Wunderground v.1.15,2013-04-27 00:49:00,
2013-04-26 17:55:00,64.7,45.1,30.21,NW,306,3.0,3.0,49,0.00,,,0.00,Wunderground v.1.15,2013-04-27 00:55:00,
2013-04-26 18:00:00,65.1,45.5,30.21,WNW,302,4.0,5.0,49,0.00,,,0.00,Wunderground v.1.15,2013-04-27 01:00:00,
2013-04-26 18:05:00,65.3,44.0,30.21,WNW,302,4.0,5.0,46,0.00,,,0.00,Wunderground v.1.15,2013-04-27 01:05:00,
2013-04-26 18:10:00,65.6,40.6,30.21,NNW,333,4.0,5.0,40,0.00,,,0.00,Wunderground v.1.15,2013-04-27 01:10:00,
2013-04-26 18:15:00,65.5,42.4,30.21,NW,309,3.0,5.0,43,0.00,,,0.00,Wunderground v.1.15,2013-04-27 01:15:00,
2013-04-26 18:20:00,65.0,44.3,30.21,North,355,4.0,4.0,47,0.00,,,0.00,Wunderground v.1.15,2013-04-27 01:20:00,
2013-04-26 18:25:00,64.2,44.6,30.21,NW,319,3.0,4.0,49,0.00,,,0.00,Wunderground v.1.15,2013-04-27 01:25:00,
2013-04-26 18:30:00,63.7,44.7,30.21,NNW,328,3.0,3.0,50,0.00,,,0.00,Wunderground v.1.15,2013-04-27 01:30:00,
2013-04-26 18:35:00,63.7,45.2,30.21,NW,314,4.0,6.0,51,0.00,,,0.00,Wunderground v.1.15,2013-04-27 01:35:00,
2013-04-26 18:40:00,63.7,44.7,30.21,West,275,5.0,7.0,50,0.00,,,0.00,Wunderground v.1.15,2013-04-27 01:40:00,
2013-04-26 18:50:00,64.1,42.9,30.22,WNW,292,4.0,5.0,46,0.00,,,0.00,Wunderground v.1.15,2013-04-27 01:50:00,
2013-04-26 18:55:00,64.0,41.6,30.22,WNW,299,4.0,5.0,44,0.00,,,0.00,Wunderground v.1.15,2013-04-27 01:55:00,
2013-04-26 18:59:00,63.8,39.6,30.22,WNW,284,5.0,5.0,41,0.00,,,0.00,Wunderground v.1.15,2013-04-27 01:59:00,
2013-04-26 19:05:00,63.3,39.2,30.22,WNW,301,5.0,7.0,41,0.00,,,0.00,Wunderground v.1.15,2013-04-27 02:05:00,
2013-04-26 19:10:00,62.8,36.8,30.22,West,265,6.0,8.0,38,0.00,,,0.00,Wunderground v.1.15,2013-04-27 02:10:00,
2013-04-26 19:15:00,62.5,37.2,30.22,WNW,297,7.0,8.0,39,0.00,,,0.00,Wunderground v.1.15,2013-04-27 02:15:00,
2013-04-26 19:20:00,62.2,36.9,30.22,NW,324,6.0,6.0,39,0.00,,,0.00,Wunderground v.1.15,2013-04-27 02:20:00,
2013-04-26 19:25:00,62.0,36.7,30.23,NNW,344,6.0,6.0,39,0.00,,,0.00,Wunderground v.1.15,2013-04-27 02:25:00,
2013-04-26 19:30:00,61.6,36.4,30.23,NW,313,6.0,6.0,39,0.00,,,0.00,Wunderground v.1.15,2013-04-27 02:30:00,
2013-04-26 19:34:00,61.3,36.8,30.23,NW,317,5.0,6.0,40,0.00,,,0.00,Wunderground v.1.15,2013-04-27 02:34:00,
2013-04-26 19:39:00,60.9,35.1,30.23,WNW,288,4.0,5.0,38,0.00,,,0.00,Wunderground v.1.15,2013-04-27 02:39:00,
2013-04-26 19:44:00,60.5,35.4,30.23,NW,319,5.0,9.0,39,0.00,,,0.00,Wunderground v.1.15,2013-04-27 02:44:00,
2013-04-26 19:50:00,60.1,34.4,30.23,WNW,290,6.0,6.0,38,0.00,,,0.00,Wunderground v.1.15,2013-04-27 02:50:00,
2013-04-26 19:54:00,59.2,36.7,30.23,West,275,8.0,14.0,43,0.00,,,0.00,Wunderground v.1.15,2013-04-27 02:54:00,
2013-04-26 20:00:00,58.5,38.3,30.23,WNW,283,11.0,15.0,47,0.00,,,0.00,Wunderground v.1.15,2013-04-27 03:00:00,
2013-04-26 20:05:00,58.0,36.8,30.23,West,275,13.0,15.0,45,0.00,,,0.00,Wunderground v.1.15,2013-04-27 03:05:00,
2013-04-26 20:10:00,57.8,37.7,30.23,WNW,283,12.0,12.0,47,0.00,,,0.00,Wunderground v.1.15,2013-04-27 03:10:00,
2013-04-26 20:15:00,57.2,39.7,30.23,WNW,288,10.0,12.0,52,0.00,,,0.00,Wunderground v.1.15,2013-04-27 03:15:00,
2013-04-26 20:20:00,57.0,39.0,30.23,West,263,9.0,9.0,51,0.00,,,0.00,Wunderground v.1.15,2013-04-27 03:20:00,
2013-04-26 20:24:00,56.8,37.3,30.23,NNW,347,6.0,9.0,48,0.00,,,0.00,Wunderground v.1.15,2013-04-27 03:24:00,
2013-04-26 20:30:00,56.3,36.3,30.23,NW,325,4.0,4.0,47,0.00,,,0.00,Wunderground v.1.15,2013-04-27 03:30:00,
2013-04-26 20:40:00,54.3,38.0,30.23,NNE,15,2.0,5.0,54,0.00,,,0.00,Wunderground v.1.15,2013-04-27 03:40:00,
2013-04-26 20:45:00,54.4,39.0,30.23,NNE,30,4.0,7.0,56,0.00,,,0.00,Wunderground v.1.15,2013-04-27 03:45:00,
2013-04-26 20:50:00,54.3,39.4,30.23,NNE,22,6.0,6.0,57,0.00,,,0.00,Wunderground v.1.15,2013-04-27 03:50:00,
2013-04-26 20:55:00,54.0,39.5,30.23,North,5,4.0,6.0,58,0.00,,,0.00,Wunderground v.1.15,2013-04-27 03:55:00,
2013-04-26 21:00:00,53.6,39.6,30.23,North,5,2.0,2.0,59,0.00,,,0.00,Wunderground v.1.15,2013-04-27 04:00:00,
2013-04-26 21:05:00,53.4,38.5,30.23,NNW,333,2.0,2.0,57,0.00,,,0.00,Wunderground v.1.15,2013-04-27 04:05:00,
2013-04-26 21:10:00,53.5,38.2,30.23,NE,34,3.0,3.0,56,0.00,,,0.00,Wunderground v.1.15,2013-04-27 04:10:00,
2013-04-26 21:15:00,53.7,38.4,30.24,NW,317,3.0,3.0,56,0.00,,,0.00,Wunderground v.1.15,2013-04-27 04:15:00,
2013-04-26 21:20:00,53.4,39.0,30.24,NNW,342,3.0,3.0,58,0.00,,,0.00,Wunderground v.1.15,2013-04-27 04:20:00,
2013-04-26 21:25:00,53.1,40.0,30.24,NNE,19,2.0,3.0,61,0.00,,,0.00,Wunderground v.1.15,2013-04-27 04:25:00,
2013-04-26 21:30:00,53.0,39.9,30.24,North,5,3.0,3.0,61,0.00,,,0.00,Wunderground v.1.15,2013-04-27 04:30:00,
2013-04-26 21:34:00,52.8,40.5,30.23,North,5,3.0,3.0,63,0.00,,,0.00,Wunderground v.1.15,2013-04-27 04:34:00,
2013-04-26 21:39:00,52.5,41.1,30.23,WNW,303,3.0,3.0,65,0.00,,,0.00,Wunderground v.1.15,2013-04-27 04:39:00,
2013-04-26 21:45:00,52.2,41.2,30.23,NNW,343,3.0,3.0,66,0.00,,,0.00,Wunderground v.1.15,2013-04-27 04:45:00,
2013-04-26 21:55:00,51.4,41.2,30.24,North,5,1.0,3.0,68,0.00,,,0.00,Wunderground v.1.15,2013-04-27 04:55:00,
2013-04-26 22:00:00,51.1,41.7,30.24,NW,306,1.0,1.0,70,0.00,,,0.00,Wunderground v.1.15,2013-04-27 05:00:00,
2013-04-26 22:05:00,50.9,41.8,30.24,NW,323,1.0,1.0,71,0.00,,,0.00,Wunderground v.1.15,2013-04-27 05:05:00,
2013-04-26 22:10:00,50.8,42.5,30.24,WNW,300,0.0,0.0,73,0.00,,,0.00,Wunderground v.1.15,2013-04-27 05:10:00,
2013-04-26 22:15:00,50.7,42.4,30.24,WNW,300,0.0,0.0,73,0.00,,,0.00,Wunderground v.1.15,2013-04-27 05:15:00,
2013-04-26 22:20:00,50.6,43.0,30.25,NW,321,0.0,3.0,75,0.00,,,0.00,Wunderground v.1.15,2013-04-27 05:20:00,
2013-04-26 22:25:00,50.7,43.1,30.25,NNW,329,2.0,3.0,75,0.00,,,0.00,Wunderground v.1.15,2013-04-27 05:25:00,
2013-04-26 22:30:00,50.6,43.0,30.25,NW,325,2.0,2.0,75,0.00,,,0.00,Wunderground v.1.15,2013-04-27 05:30:00,
2013-04-26 22:35:00,50.4,43.1,30.25,NNW,340,1.0,2.0,76,0.00,,,0.00,Wunderground v.1.15,2013-04-27 05:35:00,
2013-04-26 22:39:00,50.1,42.8,30.25,NW,325,1.0,1.0,76,0.00,,,0.00,Wunderground v.1.15,2013-04-27 05:39:00,
2013-04-26 22:45:00,49.8,43.2,30.25,NW,323,1.0,1.0,78,0.00,,,0.00,Wunderground v.1.15,2013-04-27 05:45:00,
2013-04-26 22:50:00,49.6,43.0,30.25,WNW,302,1.0,3.0,78,0.00,,,0.00,Wunderground v.1.15,2013-04-27 05:50:00,
2013-04-26 22:54:00,49.3,43.4,30.25,NW,315,2.0,6.0,80,0.00,,,0.00,Wunderground v.1.15,2013-04-27 05:54:00,
2013-04-26 22:59:00,49.1,43.5,30.26,NW,309,3.0,3.0,81,0.00,,,0.00,Wunderground v.1.15,2013-04-27 05:59:00,
2013-04-26 23:05:00,48.8,43.2,30.26,NW,318,3.0,3.0,81,0.00,,,0.00,Wunderground v.1.15,2013-04-27 06:05:00,
2013-04-26 23:10:00,48.4,42.8,30.25,NNW,346,1.0,1.0,81,0.00,,,0.00,Wunderground v.1.15,2013-04-27 06:10:00,
2013-04-26 23:15:00,48.2,43.0,30.25,NNW,346,1.0,1.0,82,0.00,,,0.00,Wunderground v.1.15,2013-04-27 06:15:00,
2013-04-26 23:20:00,47.9,43.0,30.25,NNW,342,1.0,1.0,83,0.00,,,0.00,Wunderground v.1.15,2013-04-27 06:20:00,
2013-04-26 23:25:00,47.7,42.8,30.24,NNW,340,1.0,1.0,83,0.00,,,0.00,Wunderground v.1.15,2013-04-27 06:25:00,
2013-04-26 23:30:00,47.7,43.1,30.25,SE,124,1.0,1.0,84,0.00,,,0.00,Wunderground v.1.15,2013-04-27 06:30:00,
2013-04-26 23:35:00,47.9,43.3,30.25,North,11,1.0,2.0,84,0.00,,,0.00,Wunderground v.1.15,2013-04-27 06:35:00,
2013-04-26 23:45:00,48.3,42.7,30.25,North,5,1.0,1.0,81,0.00,,,0.00,Wunderground v.1.15,2013-04-27 06:45:00,
2013-04-26 23:50:00,48.3,42.4,30.25,NW,322,1.0,2.0,80,0.00,,,0.00,Wunderground v.1.15,2013-04-27 06:50:00,
2013-04-26 23:55:00,48.4,42.8,30.25,NW,311,2.0,2.0,81,0.00,,,0.00,Wunderground v.1.15,2013-04-27 06:55:00,